Time;durP1;ratioP1;P1;durP2;ratioP2;P2;SDS_P1;SDS_P2;PMS_P1;PMS_P2;Temp;Humidity;BMP_temperature;BMP_pressure;BME280_temperature;BME280_humidity;BME280_pressure;Samples;Min_cycle;Max_cycle;Signal;HPM_P1;HPM_P2
2022/01/13 00:02:32;;;;;;;0.30;0.30;;;21.40;58.30;;;;;;5039011;28;20455;-72
2022/01/13 00:04:58;;;;;;;0.20;0.20;;;21.40;58.30;;;;;;5056811;28;20360;-72
2022/01/13 00:07:23;;;;;;;0.40;0.40;;;21.40;58.30;;;;;;5033753;28;20038;-72
2022/01/13 00:09:49;;;;;;;0.90;0.45;;;21.40;58.30;;;;;;5048008;28;20094;-72
2022/01/13 00:12:18;;;;;;;0.30;0.30;;;21.40;58.30;;;;;;5044740;28;20033;-72
2022/01/13 00:15:47;;;;;;;0.35;0.30;;;21.40;58.30;;;;;;5054896;28;20029;-72
2022/01/13 00:23:39;;;;;;;1.75;0.40;;;21.30;58.40;;;;;;5038320;28;20017;-72
2022/01/13 00:25:37;;;;;;;0.20;0.20;;;21.40;58.40;;;;;;5024991;28;20033;-72
2022/01/13 00:28:12;;;;;;;0.32;0.30;;;21.30;58.40;;;;;;5049565;28;20283;-72
2022/01/13 00:30:38;;;;;;;0.47;0.40;;;21.30;58.40;;;;;;5039627;28;20055;-72
2022/01/13 00:33:04;;;;;;;0.98;0.50;;;21.30;58.40;;;;;;5054852;28;20029;-72
2022/01/13 00:35:29;;;;;;;0.45;0.40;;;21.30;58.40;;;;;;5045258;28;20037;-72
2022/01/13 00:37:55;;;;;;;0.52;0.40;;;21.30;58.40;;;;;;5046118;28;20034;-72
2022/01/13 00:40:20;;;;;;;0.55;0.45;;;21.30;58.50;;;;;;5052920;28;20510;-72
2022/01/13 00:42:46;;;;;;;0.40;0.30;;;21.30;58.50;;;;;;5039340;28;20104;-72
2022/01/13 00:45:14;;;;;;;0.52;0.35;;;21.30;58.50;;;;;;5057932;28;20052;-72
2022/01/13 00:47:41;;;;;;;1.38;0.30;;;21.40;58.60;;;;;;5055920;28;20103;-72
2022/01/13 00:50:07;;;;;;;0.30;0.30;;;21.30;58.50;;;;;;5056843;28;20024;-72
2022/01/13 00:52:32;;;;;;;0.43;0.43;;;21.30;58.50;;;;;;5052589;28;20032;-72
2022/01/13 00:55:01;;;;;;;0.63;0.30;;;21.30;58.60;;;;;;5033340;28;20025;-72
2022/01/13 00:57:28;;;;;;;0.82;0.30;;;21.40;59.10;;;;;;5033636;28;20112;-72
2022/01/13 00:59:53;;;;;;;3.30;0.40;;;21.30;58.60;;;;;;5034625;28;20028;-72
2022/01/13 01:02:19;;;;;;;1.75;0.30;;;21.30;58.60;;;;;;5052721;28;20021;-72
2022/01/13 01:04:45;;;;;;;0.32;0.30;;;21.30;58.60;;;;;;5054552;28;20021;-72
2022/01/13 01:07:10;;;;;;;0.43;0.22;;;21.30;58.60;;;;;;5054596;28;20025;-72
2022/01/13 01:09:46;;;;;;;0.52;0.25;;;21.30;58.60;;;;;;5054740;28;20399;-72
2022/01/13 01:12:12;;;;;;;0.90;0.45;;;21.40;58.70;;;;;;5054650;28;20032;-72
2022/01/13 01:14:45;;;;;;;0.50;0.30;;;21.30;58.70;;;;;;5053275;28;20025;-72
2022/01/13 01:17:10;;;;;;;0.20;0.20;;;21.30;58.70;;;;;;5054492;28;21940;-72
2022/01/13 01:19:37;;;;;;;0.30;0.30;;;21.40;58.80;;;;;;5053409;28;20048;-72
2022/01/13 01:25:18;;;;;;;1.05;0.32;;;21.40;58.80;;;;;;5053423;28;20021;-72
2022/01/13 01:27:48;;;;;;;2.40;0.40;;;21.30;58.80;;;;;;5049624;28;20522;-72
2022/01/13 01:30:31;;;;;;;1.30;0.32;;;21.30;58.90;;;;;;5044913;28;20745;-72
2022/01/13 01:32:57;;;;;;;1.95;0.40;;;21.30;58.90;;;;;;5050066;28;20029;-72
2022/01/13 01:35:26;;;;;;;0.73;0.32;;;21.30;59.00;;;;;;5034871;28;20040;-72
2022/01/13 01:37:52;;;;;;;1.55;0.50;;;21.30;58.90;;;;;;5051342;28;20052;-72
2022/01/13 01:40:17;;;;;;;1.20;0.40;;;21.30;58.90;;;;;;5053062;28;20438;-72
2022/01/13 01:42:46;;;;;;;1.83;0.40;;;21.30;58.90;;;;;;5034433;28;20013;-70
2022/01/13 01:45:12;;;;;;;0.70;0.38;;;21.30;58.90;;;;;;5051679;28;20036;-72
2022/01/13 01:47:38;;;;;;;0.30;0.30;;;21.30;59.00;;;;;;5050788;28;20023;-72
2022/01/13 01:50:11;;;;;;;1.45;0.47;;;21.40;59.00;;;;;;5034481;28;20020;-72
2022/01/13 01:52:37;;;;;;;1.10;0.50;;;21.30;59.00;;;;;;5050007;28;20024;-72
2022/01/13 01:55:03;;;;;;;1.98;0.40;;;21.30;59.00;;;;;;5050763;28;20120;-72
2022/01/13 01:57:29;;;;;;;0.30;0.30;;;21.30;59.00;;;;;;5052256;28;20035;-72
2022/01/13 01:59:55;;;;;;;0.43;0.40;;;21.30;59.00;;;;;;5030564;28;20025;-72
2022/01/13 02:02:22;;;;;;;3.42;0.50;;;21.30;59.00;;;;;;5047714;28;20021;-72
2022/01/13 02:04:48;;;;;;;0.68;0.30;;;21.30;59.00;;;;;;5035595;28;20025;-72
2022/01/13 02:07:14;;;;;;;1.10;0.60;;;21.30;59.10;;;;;;5049871;28;20026;-71
2022/01/13 02:09:42;;;;;;;4.75;0.40;;;21.30;59.10;;;;;;5040323;28;20474;-72
2022/01/13 02:12:12;;;;;;;1.60;0.52;;;21.30;59.10;;;;;;5040715;28;20030;-72
2022/01/13 02:14:57;;;;;;;0.40;0.30;;;21.30;59.20;;;;;;5048290;28;20107;-72
2022/01/13 02:17:26;;;;;;;1.70;0.35;;;21.30;59.10;;;;;;5052087;28;20029;-71
2022/01/13 02:19:54;;;;;;;7.22;0.52;;;21.30;59.20;;;;;;5043214;28;20014;-72
2022/01/13 02:22:20;;;;;;;0.80;0.35;;;21.30;59.20;;;;;;5045228;28;20036;-72
2022/01/13 02:24:46;;;;;;;0.65;0.50;;;21.30;59.20;;;;;;5035847;28;20014;-72
2022/01/13 02:27:11;;;;;;;3.08;0.40;;;21.30;59.20;;;;;;5048228;28;20416;-72
2022/01/13 02:29:37;;;;;;;0.45;0.30;;;21.30;59.20;;;;;;5035761;28;20024;-72
2022/01/13 02:32:03;;;;;;;0.85;0.35;;;21.30;59.30;;;;;;5031773;28;20361;-72
2022/01/13 02:34:29;;;;;;;0.98;0.40;;;21.30;59.20;;;;;;5031891;28;20032;-72
2022/01/13 02:36:56;;;;;;;0.50;0.30;;;21.30;59.30;;;;;;5030475;28;20025;-72
2022/01/13 02:39:22;;;;;;;1.02;0.20;;;21.30;59.30;;;;;;5031833;28;20026;-72
2022/01/13 02:41:48;;;;;;;0.35;0.30;;;21.30;59.30;;;;;;5015144;28;20041;-72
2022/01/13 02:44:17;;;;;;;1.10;0.47;;;21.30;59.30;;;;;;5015363;28;20064;-72
2022/01/13 02:47:04;;;;;;;3.03;0.40;;;21.30;59.30;;;;;;5031811;28;20041;-72
2022/01/13 02:49:28;;;;;;;1.17;0.40;;;21.30;59.30;;;;;;5031663;28;20022;-73
2022/01/13 02:51:54;;;;;;;0.32;0.30;;;21.30;59.40;;;;;;5031540;28;20076;-72
2022/01/13 02:54:20;;;;;;;1.38;0.40;;;21.30;59.30;;;;;;5031548;28;20021;-72
2022/01/13 02:56:45;;;;;;;0.80;0.40;;;21.30;59.40;;;;;;5031294;28;20026;-72
2022/01/13 02:59:11;;;;;;;2.15;0.40;;;21.30;59.40;;;;;;5032430;28;20524;-72
2022/01/13 03:01:38;;;;;;;1.02;0.40;;;21.30;59.50;;;;;;5044619;28;20033;-72
2022/01/13 03:04:07;;;;;;;1.52;0.30;;;21.30;59.50;;;;;;5051307;28;20045;-73
2022/01/13 03:06:35;;;;;;;0.77;0.40;;;21.30;59.50;;;;;;5035188;28;20049;-72
2022/01/13 03:09:04;;;;;;;3.35;0.40;;;21.30;59.50;;;;;;5050926;28;20024;-73
2022/01/13 03:11:34;;;;;;;1.20;0.43;;;21.30;59.50;;;;;;5051379;28;20028;-72
2022/01/13 03:13:59;;;;;;;0.50;0.28;;;21.30;59.50;;;;;;5051157;28;20074;-72
2022/01/13 03:16:25;;;;;;;0.50;0.30;;;21.30;59.50;;;;;;5034315;28;20033;-73
2022/01/13 03:18:51;;;;;;;0.93;0.40;;;21.20;59.40;;;;;;5051068;28;20398;-73
2022/01/13 03:21:17;;;;;;;0.60;0.20;;;21.20;59.50;;;;;;5052225;28;20033;-73
2022/01/13 03:23:43;;;;;;;0.55;0.30;;;21.30;59.50;;;;;;5034190;28;20017;-73
2022/01/13 03:26:08;;;;;;;0.43;0.40;;;21.20;59.50;;;;;;5050932;28;20032;-73
2022/01/13 03:29:04;;;;;;;0.80;0.40;;;21.30;59.50;;;;;;5034585;28;20025;-73
2022/01/13 03:31:30;;;;;;;0.85;0.30;;;21.30;59.50;;;;;;5051462;28;20029;-72
2022/01/13 03:33:55;;;;;;;0.32;0.30;;;21.20;59.50;;;;;;5050892;28;20518;-72
2022/01/13 03:36:21;;;;;;;0.35;0.20;;;21.20;59.60;;;;;;5051060;28;20419;-72
2022/01/13 03:38:46;;;;;;;0.50;0.40;;;21.20;59.50;;;;;;5050687;28;20479;-72
2022/01/13 03:41:13;;;;;;;0.52;0.40;;;21.30;59.60;;;;;;5034260;28;20029;-73
2022/01/13 03:43:38;;;;;;;0.68;0.32;;;21.30;59.60;;;;;;5050811;28;20391;-72
2022/01/13 03:46:04;;;;;;;0.40;0.40;;;21.20;59.60;;;;;;5052119;28;20033;-72
2022/01/13 03:48:30;;;;;;;0.50;0.22;;;21.20;59.60;;;;;;5034637;28;20029;-72
2022/01/13 03:50:56;;;;;;;0.90;0.43;;;21.30;59.70;;;;;;5050858;28;20029;-72
2022/01/13 03:53:31;;;;;;;0.30;0.30;;;21.30;59.70;;;;;;5023209;28;20036;-72
2022/01/13 03:56:24;;;;;;;1.13;0.60;;;21.30;59.70;;;;;;5032063;28;20029;-72
2022/01/13 03:59:14;;;;;;;0.38;0.38;;;21.30;59.70;;;;;;5031963;28;20025;-72
2022/01/13 04:01:45;;;;;;;1.40;0.50;;;21.30;59.80;;;;;;5045690;28;20029;-72
2022/01/13 04:04:11;;;;;;;0.85;0.35;;;21.20;59.80;;;;;;5051637;28;20021;-72
2022/01/13 04:06:41;;;;;;;0.63;0.30;;;21.20;59.80;;;;;;5051721;28;20029;-72
2022/01/13 04:09:23;;;;;;;0.20;0.20;;;21.20;59.80;;;;;;5050321;28;20392;-72
2022/01/13 04:11:48;;;;;;;0.35;0.30;;;21.20;59.80;;;;;;5051877;28;20491;-72
2022/01/13 04:14:14;;;;;;;0.20;0.20;;;21.20;59.80;;;;;;5050540;28;20036;-72
2022/01/13 04:16:39;;;;;;;1.40;0.50;;;21.20;59.80;;;;;;5050567;28;20025;-72
2022/01/13 04:19:06;;;;;;;0.50;0.40;;;21.20;59.80;;;;;;5050394;28;20033;-72
2022/01/13 04:21:33;;;;;;;1.45;0.40;;;21.20;59.80;;;;;;5050270;28;20021;-72
2022/01/13 04:23:58;;;;;;;0.47;0.30;;;21.20;59.90;;;;;;5017480;28;20353;-72
2022/01/13 04:26:33;;;;;;;0.40;0.40;;;21.20;59.80;;;;;;5050363;28;20052;-72
2022/01/13 04:29:29;;;;;;;1.95;0.47;;;21.20;59.90;;;;;;5053396;28;20511;-72
2022/01/13 04:31:48;;;;;;;0.40;0.40;;;21.20;59.90;;;;;;5054322;28;20120;-72
2022/01/13 04:34:14;;;;;;;0.43;0.32;;;21.20;59.90;;;;;;5037557;28;20112;-72
2022/01/13 04:36:39;;;;;;;0.28;0.20;;;21.20;59.90;;;;;;5053878;28;20107;-72
2022/01/13 04:39:06;;;;;;;0.43;0.22;;;21.20;59.90;;;;;;5037321;28;20481;-72
2022/01/13 04:41:36;;;;;;;0.38;0.35;;;21.20;59.90;;;;;;5054259;28;20104;-72
2022/01/13 04:44:06;;;;;;;0.60;0.40;;;21.20;59.90;;;;;;5053973;28;20024;-72
2022/01/13 04:46:31;;;;;;;0.65;0.35;;;21.20;59.90;;;;;;5054212;28;20052;-72
2022/01/13 04:48:57;;;;;;;1.92;0.30;;;21.20;59.90;;;;;;5053818;28;20063;-72
2022/01/13 04:51:23;;;;;;;0.77;0.40;;;21.20;60.00;;;;;;5036826;28;20060;-72
2022/01/13 04:53:48;;;;;;;0.40;0.28;;;21.20;59.90;;;;;;5039542;28;20037;-72
2022/01/13 04:56:26;;;;;;;0.82;0.40;;;21.20;60.00;;;;;;5033856;28;20029;-72
2022/01/13 04:58:52;;;;;;;0.43;0.30;;;21.20;60.00;;;;;;5033779;28;20083;-72
2022/01/13 05:01:18;;;;;;;1.60;0.50;;;21.20;60.00;;;;;;5044125;28;20025;-72
2022/01/13 05:03:43;;;;;;;0.77;0.35;;;21.20;60.00;;;;;;5054912;28;20021;-72
2022/01/13 05:06:09;;;;;;;0.30;0.20;;;21.20;60.10;;;;;;5054309;28;20021;-72
2022/01/13 05:08:35;;;;;;;0.47;0.38;;;21.20;60.00;;;;;;5054792;28;20402;-72
2022/01/13 05:11:00;;;;;;;0.20;0.20;;;21.20;60.10;;;;;;5053612;28;20116;-72
2022/01/13 05:13:26;;;;;;;0.35;0.30;;;21.20;60.40;;;;;;5054595;28;20423;-72
2022/01/13 05:15:54;;;;;;;0.50;0.30;;;21.20;60.60;;;;;;5053625;28;20487;-72
2022/01/13 05:21:06;;;;;;;1.10;0.30;;;21.20;60.10;;;;;;5039422;28;20441;-72
2022/01/13 05:23:32;;;;;;;0.52;0.40;;;21.20;60.10;;;;;;5054618;28;20031;-72
2022/01/13 05:25:58;;;;;;;1.50;0.30;;;21.20;60.20;;;;;;5053156;28;20029;-72
2022/01/13 05:28:24;;;;;;;0.60;0.35;;;21.20;60.20;;;;;;5053145;28;20502;-72
2022/01/13 05:30:51;;;;;;;1.30;0.30;;;21.20;60.10;;;;;;5053066;28;20072;-72
2022/01/13 05:33:17;;;;;;;0.82;0.30;;;21.20;60.10;;;;;;5036576;28;20088;-72
2022/01/13 05:35:42;;;;;;;0.20;0.20;;;21.20;60.10;;;;;;5052944;28;20025;-72
2022/01/13 05:38:08;;;;;;;0.73;0.38;;;21.20;60.10;;;;;;5052723;28;20028;-72
2022/01/13 05:40:35;;;;;;;0.57;0.40;;;21.20;60.20;;;;;;5036098;28;20025;-72
2022/01/13 05:43:00;;;;;;;0.70;0.50;;;21.20;60.20;;;;;;5054018;28;20071;-72
2022/01/13 05:45:30;;;;;;;0.55;0.30;;;21.20;60.20;;;;;;5052795;28;20021;-72
2022/01/13 05:47:57;;;;;;;0.50;0.28;;;21.20;60.20;;;;;;5054002;28;20124;-72
2022/01/13 05:50:22;;;;;;;0.30;0.30;;;21.20;60.20;;;;;;5052483;28;20463;-72
2022/01/13 05:52:48;;;;;;;1.10;0.45;;;21.20;60.20;;;;;;5047814;28;20017;-72
2022/01/13 05:55:14;;;;;;;0.57;0.38;;;21.20;60.20;;;;;;5032510;28;20037;-72
2022/01/13 05:57:40;;;;;;;2.05;0.30;;;21.20;60.20;;;;;;5032646;28;20028;-72
2022/01/13 06:00:06;;;;;;;0.75;0.30;;;21.20;60.20;;;;;;5033065;28;20022;-72
2022/01/13 06:02:32;;;;;;;1.05;0.30;;;21.20;60.20;;;;;;5047173;28;20029;-71
2022/01/13 06:04:57;;;;;;;1.75;0.30;;;21.20;60.30;;;;;;5023886;28;20377;-72
2022/01/13 06:07:23;;;;;;;0.77;0.63;;;21.20;60.40;;;;;;5044952;28;20100;-71
2022/01/13 06:09:49;;;;;;;0.35;0.20;;;21.20;60.30;;;;;;5047198;28;20025;-71
2022/01/13 06:12:16;;;;;;;0.40;0.30;;;21.20;60.40;;;;;;5043492;28;20111;-72
2022/01/13 06:14:42;;;;;;;0.30;0.30;;;21.20;60.40;;;;;;5040195;28;20033;-72
2022/01/13 06:17:08;;;;;;;0.90;0.50;;;21.20;60.50;;;;;;5048954;28;20023;-72
2022/01/13 06:19:33;;;;;;;0.77;0.50;;;21.20;60.40;;;;;;5036014;28;20017;-72
2022/01/13 06:21:59;;;;;;;0.20;0.20;;;21.20;60.40;;;;;;5045057;28;20021;-72
2022/01/13 06:24:24;;;;;;;0.40;0.40;;;21.20;60.80;;;;;;5044616;28;20443;-72
2022/01/13 06:26:50;;;;;;;0.30;0.30;;;21.20;60.40;;;;;;5037868;28;20042;-72
2022/01/13 06:29:16;;;;;;;0.47;0.30;;;21.20;60.40;;;;;;5049707;28;20487;-71
2022/01/13 06:31:41;;;;;;;0.30;0.30;;;21.20;60.40;;;;;;5038411;28;20035;-72
2022/01/13 06:34:07;;;;;;;0.30;0.30;;;21.20;60.40;;;;;;5043394;28;20048;-72
2022/01/13 06:36:33;;;;;;;1.55;0.38;;;21.20;60.40;;;;;;5044292;28;20487;-72
2022/01/13 06:38:59;;;;;;;0.50;0.30;;;21.20;60.40;;;;;;5037823;28;20033;-72
2022/01/13 06:41:24;;;;;;;0.60;0.28;;;21.20;60.40;;;;;;5050940;28;20020;-72
2022/01/13 06:43:50;;;;;;;0.80;0.28;;;21.20;60.40;;;;;;5035659;28;20029;-72
2022/01/13 06:46:16;;;;;;;0.57;0.50;;;21.20;60.40;;;;;;5043046;28;20010;-72
2022/01/13 06:48:42;;;;;;;1.17;0.35;;;21.20;60.40;;;;;;5048291;28;20476;-72
2022/01/13 06:51:08;;;;;;;1.27;0.35;;;21.20;60.50;;;;;;5022933;28;20028;-72
2022/01/13 06:53:34;;;;;;;0.30;0.30;;;21.20;60.40;;;;;;5034745;28;20032;-72
2022/01/13 06:55:59;;;;;;;0.93;0.40;;;21.20;60.50;;;;;;5037631;28;20029;-72
2022/01/13 06:58:25;;;;;;;0.20;0.20;;;21.20;60.50;;;;;;5031330;28;20063;-72
2022/01/13 07:00:51;;;;;;;1.63;0.50;;;21.20;60.50;;;;;;5039350;28;20122;-72
2022/01/13 07:03:16;;;;;;;0.43;0.28;;;21.20;60.50;;;;;;5043259;28;20021;-72
2022/01/13 07:05:42;;;;;;;0.40;0.40;;;21.20;60.50;;;;;;5045803;28;20489;-72
2022/01/13 07:08:10;;;;;;;0.68;0.40;;;21.20;60.50;;;;;;5035285;28;20040;-71
2022/01/13 07:10:36;;;;;;;0.70;0.70;;;21.20;60.40;;;;;;5050713;28;20045;-70
2022/01/13 07:13:02;;;;;;;0.55;0.55;;;21.20;60.10;;;;;;5044636;28;20398;-70
2022/01/13 07:15:28;;;;;;;0.68;0.68;;;21.10;60.00;;;;;;5034702;28;20025;-71
2022/01/13 07:17:54;;;;;;;0.77;0.70;;;21.10;60.00;;;;;;5036757;28;20033;-70
2022/01/13 07:20:20;;;;;;;0.73;0.73;;;21.00;59.90;;;;;;5047835;28;20017;-70
2022/01/13 07:22:45;;;;;;;2.03;0.50;;;21.00;59.80;;;;;;5035870;28;20456;-70
2022/01/13 07:25:11;;;;;;;0.98;0.80;;;21.00;59.80;;;;;;5044685;28;20080;-70
2022/01/13 07:27:36;;;;;;;0.52;0.50;;;20.90;59.80;;;;;;5044053;28;20103;-70
2022/01/13 07:30:03;;;;;;;0.70;0.70;;;21.00;59.80;;;;;;5035935;28;20025;-70
2022/01/13 07:32:28;;;;;;;1.33;0.70;;;20.90;59.70;;;;;;5030871;28;20033;-70
2022/01/13 07:34:54;;;;;;;1.00;0.80;;;20.90;59.70;;;;;;5036949;28;20017;-70
2022/01/13 07:37:24;;;;;;;0.70;0.70;;;20.90;59.70;;;;;;5043382;28;20056;-71
2022/01/13 07:39:49;;;;;;;1.35;0.80;;;20.90;59.70;;;;;;5045804;28;20107;-70
2022/01/13 07:42:16;;;;;;;1.75;0.57;;;20.90;59.70;;;;;;5035630;28;20104;-70
2022/01/13 07:44:42;;;;;;;2.88;0.80;;;20.90;59.80;;;;;;5031740;28;20014;-71
2022/01/13 07:47:07;;;;;;;4.45;1.00;;;20.90;59.80;;;;;;5031856;28;20406;-71
2022/01/13 07:49:35;;;;;;;1.33;1.20;;;20.90;59.80;;;;;;5030774;28;20032;-71
2022/01/13 07:52:01;;;;;;;5.72;1.45;;;20.90;59.80;;;;;;5030952;28;20041;-71
2022/01/13 07:54:30;;;;;;;5.00;1.58;;;20.90;59.80;;;;;;5030759;28;20034;-71
2022/01/13 07:56:56;;;;;;;5.57;1.40;;;20.90;59.80;;;;;;5030709;28;20147;-71
2022/01/13 07:59:27;;;;;;;3.28;1.50;;;20.90;59.70;;;;;;5030443;28;20021;-71
2022/01/13 08:01:53;;;;;;;5.07;1.60;;;20.90;59.80;;;;;;5042179;28;20044;-71
2022/01/13 08:04:19;;;;;;;1.98;1.00;;;20.90;59.70;;;;;;5036338;28;20025;-71
2022/01/13 08:06:45;;;;;;;6.18;1.92;;;20.90;59.70;;;;;;5047608;28;20032;-71
2022/01/13 08:09:10;;;;;;;3.92;1.35;;;20.80;59.70;;;;;;5056115;28;20488;-71
2022/01/13 08:11:36;;;;;;;6.63;1.70;;;20.90;59.70;;;;;;5037906;28;20033;-71
2022/01/13 08:14:01;;;;;;;5.20;1.60;;;20.80;59.70;;;;;;5034293;28;20112;-71
2022/01/13 08:16:32;;;;;;;6.53;1.63;;;20.80;59.70;;;;;;5035837;28;20083;-71
2022/01/13 08:21:42;;;;;;;7.30;1.85;;;20.80;59.60;;;;;;5054937;28;20090;-71
2022/01/13 08:24:08;;;;;;;5.43;1.92;;;20.80;59.60;;;;;;5054581;28;20017;-71
2022/01/13 08:26:34;;;;;;;3.65;1.45;;;20.80;59.70;;;;;;5055273;28;20059;-71
2022/01/13 08:28:59;;;;;;;3.35;1.30;;;20.80;59.60;;;;;;5054183;28;20032;-71
2022/01/13 08:31:25;;;;;;;4.35;1.58;;;20.80;59.60;;;;;;5055371;28;20515;-71
2022/01/13 08:33:51;;;;;;;3.33;1.58;;;20.70;59.50;;;;;;5054322;28;20036;-71
2022/01/13 08:36:16;;;;;;;3.78;1.60;;;20.80;59.60;;;;;;5028751;28;20030;-71
2022/01/13 08:38:42;;;;;;;2.90;1.50;;;20.70;59.50;;;;;;5033941;28;20025;-71
2022/01/13 08:41:07;;;;;;;4.88;1.70;;;20.70;59.50;;;;;;5034416;28;20365;-71
2022/01/13 08:43:34;;;;;;;5.15;1.60;;;20.70;59.50;;;;;;5033704;28;20022;-71
2022/01/13 08:46:01;;;;;;;4.40;1.40;;;20.80;59.60;;;;;;5034219;28;20508;-71
2022/01/13 08:48:27;;;;;;;6.47;1.88;;;20.80;59.50;;;;;;5034123;28;20033;-71
2022/01/13 08:50:52;;;;;;;3.05;1.77;;;20.70;59.50;;;;;;5034075;28;20033;-71
2022/01/13 08:53:18;;;;;;;4.35;1.80;;;20.70;59.50;;;;;;5033911;28;20025;-71
2022/01/13 08:55:45;;;;;;;4.22;1.60;;;20.70;59.50;;;;;;5033923;28;20029;-71
2022/01/13 08:58:11;;;;;;;3.55;1.70;;;20.70;59.50;;;;;;5017070;28;20032;-71
2022/01/13 09:00:37;;;;;;;2.58;1.30;;;20.70;59.50;;;;;;5034838;28;20025;-71
2022/01/13 09:03:06;;;;;;;4.28;1.40;;;20.70;59.50;;;;;;5035252;28;20060;-71
2022/01/13 09:05:33;;;;;;;3.22;1.60;;;20.70;59.50;;;;;;5033695;28;20034;-71
2022/01/13 09:07:58;;;;;;;4.07;1.67;;;20.70;59.50;;;;;;5033630;28;20026;-71
2022/01/13 09:10:24;;;;;;;3.13;1.40;;;20.70;59.40;;;;;;5043673;28;20040;-71
2022/01/13 09:12:49;;;;;;;1.90;1.20;;;20.70;59.40;;;;;;5054423;28;20028;-71
2022/01/13 09:15:39;;;;;;;3.15;1.40;;;20.70;59.40;;;;;;5053865;28;20483;-71
2022/01/13 09:18:16;;;;;;;2.65;1.40;;;20.70;59.40;;;;;;5053700;28;20102;-71
2022/01/13 09:20:42;;;;;;;4.53;1.67;;;20.70;59.40;;;;;;5038342;28;20029;-71
2022/01/13 09:23:08;;;;;;;2.58;1.50;;;20.60;59.40;;;;;;5053550;28;20029;-71
2022/01/13 09:25:33;;;;;;;2.92;1.42;;;20.70;59.40;;;;;;5053184;28;20106;-71
2022/01/13 09:27:59;;;;;;;2.72;1.20;;;20.70;59.40;;;;;;5052723;28;20048;-71
2022/01/13 09:30:25;;;;;;;3.97;1.50;;;20.70;59.30;;;;;;5053328;28;20029;-71
2022/01/13 09:32:51;;;;;;;2.40;1.27;;;20.70;59.30;;;;;;5053166;28;20079;-71
2022/01/13 09:35:16;;;;;;;2.22;1.20;;;20.60;59.30;;;;;;5053341;28;20104;-71
2022/01/13 09:37:42;;;;;;;2.97;1.45;;;20.60;59.30;;;;;;5052824;28;20028;-71
2022/01/13 09:40:09;;;;;;;3.47;1.25;;;20.70;59.30;;;;;;5053024;28;20083;-71
2022/01/13 09:42:35;;;;;;;3.90;1.30;;;20.60;59.30;;;;;;5036235;28;20541;-71
2022/01/13 09:45:02;;;;;;;4.30;1.38;;;20.60;59.20;;;;;;5053106;28;20025;-71
2022/01/13 09:47:29;;;;;;;1.77;1.17;;;20.60;59.20;;;;;;5052833;28;20025;-71
2022/01/13 09:49:55;;;;;;;3.35;1.77;;;20.70;59.30;;;;;;5036433;28;20470;-71
2022/01/13 09:52:21;;;;;;;2.42;1.30;;;20.60;59.20;;;;;;5034046;28;20021;-71
2022/01/13 09:54:48;;;;;;;2.33;1.10;;;20.60;59.20;;;;;;5032852;28;20033;-71
2022/01/13 09:57:13;;;;;;;2.47;1.33;;;20.60;59.20;;;;;;5015862;28;20025;-71
2022/01/13 09:59:39;;;;;;;2.35;1.20;;;20.60;59.20;;;;;;5032672;28;20087;-71
2022/01/13 10:02:05;;;;;;;2.60;1.30;;;20.60;59.20;;;;;;5032756;28;20029;-71
2022/01/13 10:04:47;;;;;;;1.83;1.30;;;20.60;59.20;;;;;;5032626;28;20026;-71
2022/01/13 10:07:17;;;;;;;2.17;1.30;;;20.70;59.10;;;;;;5032679;28;20333;-71
2022/01/13 10:09:53;;;;;;;3.28;1.33;;;20.60;59.20;;;;;;5035372;28;20025;-71
2022/01/13 10:12:34;;;;;;;1.83;1.30;;;20.60;59.10;;;;;;5052557;28;20020;-71
2022/01/13 10:17:28;;;;;;;1.60;1.13;;;20.60;59.20;;;;;;5052414;28;20036;-71
2022/01/13 10:19:57;;;;;;;2.17;1.40;;;20.60;59.20;;;;;;5053391;28;20029;-71
2022/01/13 10:22:24;;;;;;;1.67;1.25;;;20.60;59.20;;;;;;5052458;28;20017;-71
2022/01/13 10:24:56;;;;;;;2.90;1.40;;;20.60;59.20;;;;;;5051645;28;20021;-71
2022/01/13 10:27:42;;;;;;;2.13;0.93;;;20.60;59.20;;;;;;5036285;28;20048;-71
2022/01/13 10:30:15;;;;;;;2.35;1.50;;;20.60;59.00;;;;;;5051915;28;20040;-71
2022/01/13 10:32:41;;;;;;;1.88;1.10;;;20.60;60.10;;;;;;5035575;28;20025;-71
2022/01/13 10:35:09;;;;;;;1.38;1.23;;;20.50;59.20;;;;;;5035611;28;20025;-71
2022/01/13 10:37:36;;;;;;;1.77;1.08;;;20.50;59.10;;;;;;5051663;28;20052;-71
2022/01/13 10:40:08;;;;;;;1.65;1.35;;;20.60;59.10;;;;;;5052712;28;20036;-71
2022/01/13 10:45:00;;;;;;;1.17;1.02;;;20.60;59.10;;;;;;5053038;28;20140;-71
2022/01/13 10:47:27;;;;;;;1.67;1.33;;;20.50;59.10;;;;;;5052068;28;20021;-71
2022/01/13 10:49:52;;;;;;;1.67;1.00;;;20.50;59.10;;;;;;5052780;28;20017;-71
2022/01/13 10:52:26;;;;;;;1.20;1.10;;;20.50;59.10;;;;;;5033396;28;20017;-71
2022/01/13 10:55:12;;;;;;;1.90;1.10;;;20.60;60.00;;;;;;5031330;28;20013;-71
2022/01/13 10:57:38;;;;;;;1.67;1.10;;;20.60;58.90;;;;;;5031514;28;20021;-71
2022/01/13 11:00:05;;;;;;;2.00;1.10;;;20.50;59.00;;;;;;5031661;28;20384;-71
2022/01/13 11:02:31;;;;;;;1.88;1.25;;;20.60;59.10;;;;;;5032728;28;20100;-71
2022/01/13 11:05:00;;;;;;;1.83;1.20;;;20.50;59.00;;;;;;5031437;28;20125;-71
2022/01/13 11:07:27;;;;;;;0.85;0.85;;;20.50;59.00;;;;;;5014944;28;20391;-71
2022/01/13 11:09:57;;;;;;;2.50;1.30;;;20.50;59.00;;;;;;5036553;28;20017;-71
2022/01/13 11:12:35;;;;;;;1.85;1.20;;;20.50;58.90;;;;;;5051421;28;20043;-71
2022/01/13 11:15:06;;;;;;;1.20;1.10;;;20.50;58.90;;;;;;5051386;28;20076;-71
2022/01/13 11:17:37;;;;;;;2.00;1.42;;;20.50;59.00;;;;;;5051261;28;20017;-71
2022/01/13 11:20:05;;;;;;;1.65;1.40;;;20.50;58.90;;;;;;5051293;28;20021;-71
2022/01/13 11:22:34;;;;;;;1.77;1.30;;;20.50;58.90;;;;;;5050900;28;20070;-71
2022/01/13 11:25:01;;;;;;;1.52;1.38;;;20.50;58.90;;;;;;5051404;28;20028;-71
2022/01/13 11:27:27;;;;;;;1.20;1.10;;;20.50;58.90;;;;;;5018217;28;20052;-71
2022/01/13 11:29:52;;;;;;;1.25;0.90;;;20.50;58.90;;;;;;5034408;28;20025;-71
2022/01/13 11:32:18;;;;;;;1.10;1.00;;;20.50;58.90;;;;;;5034894;28;20021;-71
2022/01/13 11:34:44;;;;;;;1.33;1.10;;;20.50;58.80;;;;;;5052241;28;20021;-71
2022/01/13 11:37:09;;;;;;;1.15;1.08;;;20.50;58.90;;;;;;5033626;28;20025;-71
2022/01/13 11:39:40;;;;;;;1.45;1.35;;;20.50;58.90;;;;;;5052061;28;20029;-71
2022/01/13 11:42:07;;;;;;;1.00;0.90;;;20.50;58.90;;;;;;5050966;28;20048;-71
2022/01/13 11:44:32;;;;;;;1.35;0.90;;;20.50;58.80;;;;;;5034524;28;20021;-71
2022/01/13 11:46:58;;;;;;;1.58;1.25;;;20.50;58.90;;;;;;5034363;28;20028;-71
2022/01/13 11:49:42;;;;;;;1.25;1.08;;;20.50;58.80;;;;;;5034304;28;20053;-71
2022/01/13 11:52:14;;;;;;;1.23;0.90;;;20.50;58.80;;;;;;5050223;28;20017;-71
2022/01/13 11:54:40;;;;;;;1.70;1.38;;;20.50;58.80;;;;;;5031074;28;20021;-71
2022/01/13 11:57:14;;;;;;;1.10;1.00;;;20.50;58.80;;;;;;5030831;28;20545;-71
2022/01/13 11:59:39;;;;;;;1.30;1.20;;;20.50;58.80;;;;;;5030754;28;20029;-71
2022/01/13 12:02:25;;;;;;;1.00;0.90;;;20.40;58.70;;;;;;5014319;28;20028;-71
2022/01/13 12:05:09;;;;;;;1.40;1.20;;;20.50;58.50;;;;;;5030652;28;20140;-71
2022/01/13 12:07:42;;;;;;;1.25;0.90;;;20.50;58.70;;;;;;5030608;28;20021;-71
2022/01/13 12:10:08;;;;;;;1.15;1.05;;;20.50;58.70;;;;;;5037314;28;20017;-71
2022/01/13 12:12:34;;;;;;;0.98;0.95;;;20.50;58.70;;;;;;5050831;28;20021;-71
2022/01/13 12:15:22;;;;;;;1.13;0.88;;;20.50;58.90;;;;;;5051943;28;20021;-71
2022/01/13 12:17:49;;;;;;;0.80;0.80;;;20.50;58.50;;;;;;5034452;28;20108;-71
2022/01/13 12:20:48;;;;;;;1.00;1.00;;;20.50;58.70;;;;;;5033934;28;20037;-71
2022/01/13 12:23:39;;;;;;;0.90;0.90;;;20.50;59.60;;;;;;5050991;28;20068;-71
2022/01/13 12:26:27;;;;;;;1.02;0.93;;;20.50;58.50;;;;;;5051531;28;20053;-71
2022/01/13 12:29:21;;;;;;;0.90;0.90;;;20.50;58.50;;;;;;5051727;28;20056;-71
2022/01/13 12:32:06;;;;;;;0.90;0.90;;;20.50;58.60;;;;;;5050508;28;20099;-71
2022/01/13 12:34:31;;;;;;;1.42;1.13;;;20.50;58.70;;;;;;5051394;28;20155;-71
2022/01/13 12:36:58;;;;;;;1.50;1.35;;;20.40;58.70;;;;;;5051473;28;20107;-71
2022/01/13 12:39:24;;;;;;;1.05;0.95;;;20.40;58.70;;;;;;5050239;28;20036;-71
2022/01/13 12:41:58;;;;;;;0.93;0.82;;;20.40;58.60;;;;;;5051667;28;20100;-71
2022/01/13 12:45:28;;;;;;;1.30;1.20;;;20.40;58.60;;;;;;5051728;28;20361;-71
2022/01/13 12:47:10;;;;;;;1.33;1.05;;;20.50;58.60;;;;;;5050392;28;20029;-71
2022/01/13 12:49:36;;;;;;;0.90;0.90;;;20.40;58.60;;;;;;5034610;28;20025;-71
2022/01/13 12:52:03;;;;;;;1.27;1.17;;;20.50;58.60;;;;;;5054099;28;20057;-71
2022/01/13 12:54:29;;;;;;;0.82;0.82;;;20.50;58.50;;;;;;5034076;28;20053;-71
2022/01/13 12:56:54;;;;;;;1.00;0.90;;;20.50;58.60;;;;;;5033812;28;20068;-71
2022/01/13 12:59:22;;;;;;;0.88;0.88;;;20.40;58.40;;;;;;5035063;28;20159;-71
2022/01/13 13:01:47;;;;;;;1.23;1.00;;;20.50;58.50;;;;;;5034055;28;20022;-71
2022/01/13 13:04:13;;;;;;;0.90;0.90;;;20.50;58.50;;;;;;5033507;28;20032;-71
2022/01/13 13:06:45;;;;;;;0.85;0.85;;;20.50;58.50;;;;;;5033838;28;20028;-71
2022/01/13 13:09:16;;;;;;;0.63;0.63;;;20.50;58.50;;;;;;5033750;28;20022;-71
2022/01/13 13:11:43;;;;;;;1.10;1.00;;;20.50;58.50;;;;;;5053388;28;20035;-71
2022/01/13 13:14:16;;;;;;;1.17;1.08;;;20.50;58.50;;;;;;5053557;28;20025;-71